createdAt,value
2023-01-13T00:01:56.241Z,2.40
2023-01-13T00:04:27.321Z,2.67
2023-01-13T00:06:58.065Z,2.85
2023-01-13T00:09:29.336Z,2.13
2023-01-13T00:12:00.173Z,2.83
2023-01-13T00:14:33.446Z,2.00
2023-01-13T00:17:06.555Z,2.22
2023-01-13T00:19:37.508Z,2.33
2023-01-13T00:22:08.650Z,2.55
2023-01-13T00:24:39.467Z,2.40
2023-01-13T00:27:11.262Z,2.88
2023-01-13T00:29:41.988Z,2.33
2023-01-13T00:32:13.715Z,2.30
2023-01-13T00:34:44.688Z,2.10
2023-01-13T00:37:16.921Z,2.00
2023-01-13T00:39:48.061Z,1.80
2023-01-13T00:42:36.638Z,1.75
2023-01-13T00:45:07.875Z,2.45
2023-01-13T00:47:38.184Z,2.45
2023-01-13T00:50:08.799Z,2.10
2023-01-13T00:52:40.583Z,2.67
2023-01-13T00:55:12.447Z,1.73
2023-01-13T00:57:45.461Z,2.17
2023-01-13T01:00:17.711Z,1.85
2023-01-13T01:02:50.536Z,2.28
2023-01-13T01:05:20.897Z,2.35
2023-01-13T01:07:51.475Z,2.30
2023-01-13T01:10:21.872Z,1.98
2023-01-13T01:12:54.748Z,2.80
2023-01-13T01:15:25.734Z,1.80
2023-01-13T01:17:56.146Z,2.25
2023-01-13T01:20:26.913Z,2.10
2023-01-13T01:22:57.247Z,2.20
2023-01-13T01:25:27.594Z,2.08
2023-01-13T01:27:57.930Z,3.10
2023-01-13T01:30:29.496Z,2.20
2023-01-13T01:32:59.769Z,2.13
2023-01-13T01:35:30.024Z,2.25
2023-01-13T01:38:00.382Z,3.05
2023-01-13T01:40:30.702Z,2.38
2023-01-13T01:43:19.186Z,2.08
2023-01-13T01:45:50.166Z,1.90
2023-01-13T01:48:21.157Z,2.70
2023-01-13T01:50:52.074Z,2.10
2023-01-13T01:53:25.317Z,2.15
2023-01-13T01:55:56.589Z,2.00
2023-01-13T01:58:31.264Z,2.03
2023-01-13T02:01:02.314Z,2.22
2023-01-13T02:03:33.049Z,2.92
2023-01-13T02:06:03.608Z,2.47
2023-01-13T02:08:36.880Z,2.33
2023-01-13T02:11:07.980Z,2.38
2023-01-13T02:13:38.557Z,3.20
2023-01-13T02:16:21.812Z,2.53
2023-01-13T02:19:41.281Z,2.35
2023-01-13T02:22:32.530Z,2.58
2023-01-13T02:25:28.902Z,2.50
2023-01-13T02:28:20.515Z,2.75
2023-01-13T02:31:17.591Z,2.92
2023-01-13T02:36:45.487Z,2.47
2023-01-13T02:39:26.080Z,2.70
2023-01-13T02:42:37.816Z,2.22
2023-01-13T02:45:22.291Z,2.50
2023-01-13T02:47:58.863Z,2.65
2023-01-13T02:50:44.111Z,2.60
2023-01-13T02:53:41.326Z,2.80
2023-01-13T02:56:13.905Z,3.13
2023-01-13T02:58:47.463Z,3.15
2023-01-13T03:01:17.995Z,2.90
2023-01-13T03:03:50.147Z,2.50
2023-01-13T03:07:02.004Z,2.75
2023-01-13T03:09:42.559Z,3.13
2023-01-13T03:12:34.620Z,3.42
2023-01-13T03:15:48.470Z,3.53
2023-01-13T03:18:35.709Z,3.08
2023-01-13T03:21:15.255Z,3.38
2023-01-13T03:24:04.644Z,3.08
2023-01-13T03:26:55.274Z,3.40
2023-01-13T03:29:31.841Z,3.05
2023-01-13T03:32:14.036Z,2.97
2023-01-13T03:35:21.874Z,3.80
2023-01-13T03:38:14.926Z,3.13
2023-01-13T03:40:57.020Z,3.40
2023-01-13T03:44:08.889Z,3.20
2023-01-13T03:46:50.770Z,3.25
2023-01-13T03:49:30.020Z,3.25
2023-01-13T03:52:04.320Z,3.22
2023-01-13T03:54:39.524Z,3.50
2023-01-13T03:57:14.478Z,3.22
2023-01-13T04:03:10.136Z,3.20
2023-01-13T04:05:44.347Z,3.22
2023-01-13T04:11:16.858Z,3.17
2023-01-13T04:13:50.072Z,2.90
2023-01-13T04:16:20.787Z,3.35
2023-01-13T04:18:53.075Z,3.40
2023-01-13T04:21:23.397Z,3.00
2023-01-13T04:23:53.626Z,3.03
2023-01-13T04:26:25.173Z,3.25
2023-01-13T04:28:56.496Z,2.97
2023-01-13T04:31:26.896Z,2.80
2023-01-13T04:33:57.489Z,3.08
2023-01-13T04:36:29.331Z,3.30
2023-01-13T04:38:59.585Z,2.72
2023-01-13T04:41:29.918Z,2.80
2023-01-13T04:44:00.214Z,2.70
2023-01-13T04:46:30.582Z,3.20
2023-01-13T04:49:00.935Z,2.83
2023-01-13T04:51:31.214Z,3.25
2023-01-13T04:54:01.473Z,2.45
2023-01-13T04:56:31.757Z,2.60
2023-01-13T04:59:02.009Z,2.60
2023-01-13T05:01:32.883Z,3.00
2023-01-13T05:04:07.498Z,2.88
2023-01-13T05:06:37.881Z,2.90
2023-01-13T05:09:08.102Z,2.80
2023-01-13T05:11:56.207Z,3.10
2023-01-13T05:14:45.014Z,3.05
2023-01-13T05:17:24.823Z,2.35
2023-01-13T05:19:55.153Z,2.70
2023-01-13T05:22:43.287Z,2.75
2023-01-13T05:25:29.841Z,2.80
2023-01-13T05:28:01.918Z,2.53
2023-01-13T05:30:34.958Z,2.70
2023-01-13T05:33:06.130Z,2.65
2023-01-13T05:35:36.453Z,2.58
2023-01-13T05:38:06.932Z,2.70
2023-01-13T05:40:55.658Z,2.58
2023-01-13T05:43:26.827Z,2.60
2023-01-13T05:46:11.262Z,3.03
2023-01-13T05:48:44.088Z,2.20
2023-01-13T05:51:15.467Z,2.28
2023-01-13T05:53:45.770Z,2.40
2023-01-13T05:56:16.367Z,2.20
2023-01-13T05:58:46.634Z,2.70
2023-01-13T06:01:17.094Z,2.22
2023-01-13T06:03:47.467Z,2.50
2023-01-13T06:06:17.790Z,2.70
2023-01-13T06:08:48.976Z,2.60
2023-01-13T06:11:19.364Z,2.90
2023-01-13T06:13:49.697Z,2.95
2023-01-13T06:16:20.068Z,3.67
2023-01-13T06:18:50.424Z,2.53
2023-01-13T06:21:20.749Z,2.60
2023-01-13T06:23:51.062Z,2.53
2023-01-13T06:26:24.169Z,3.30
2023-01-13T06:28:54.436Z,2.50
2023-01-13T06:31:25.375Z,2.85
2023-01-13T06:34:00.932Z,2.30
2023-01-13T06:36:39.307Z,2.40
2023-01-13T06:39:10.608Z,2.50
2023-01-13T06:41:59.094Z,2.75
2023-01-13T06:44:29.514Z,2.05
2023-01-13T06:46:59.889Z,3.10
2023-01-13T06:49:30.408Z,2.80
2023-01-13T06:52:00.791Z,2.90
2023-01-13T06:54:31.091Z,2.67
2023-01-13T06:57:01.560Z,2.40
2023-01-13T06:59:31.855Z,3.08
2023-01-13T07:02:02.658Z,2.20
2023-01-13T07:04:33.113Z,2.55
2023-01-13T07:07:03.609Z,2.55
2023-01-13T07:09:33.865Z,3.15
2023-01-13T07:12:04.666Z,2.55
2023-01-13T07:14:52.921Z,2.35
2023-01-13T07:17:26.871Z,2.53
2023-01-13T07:19:57.170Z,2.53
2023-01-13T07:22:27.622Z,3.08
2023-01-13T07:24:58.473Z,2.58
2023-01-13T07:27:30.218Z,2.95
2023-01-13T07:30:00.495Z,2.72
2023-01-13T07:32:31.128Z,3.05
2023-01-13T07:35:06.839Z,2.72
2023-01-13T07:37:41.286Z,2.92
2023-01-13T07:40:12.455Z,3.22
2023-01-13T07:43:00.909Z,3.65
2023-01-13T07:45:31.368Z,2.50
2023-01-13T07:48:02.409Z,2.33
2023-01-13T07:50:32.771Z,2.35
2023-01-13T07:53:03.131Z,2.58
2023-01-13T07:55:33.697Z,1.90
2023-01-13T07:58:03.951Z,1.27
2023-01-13T08:00:34.294Z,1.90
2023-01-13T08:03:04.698Z,1.70
2023-01-13T08:05:37.151Z,1.67
2023-01-13T08:08:11.041Z,1.90
2023-01-13T08:10:41.372Z,1.40
2023-01-13T08:13:22.617Z,1.38
2023-01-13T08:15:55.632Z,1.83
2023-01-13T08:18:26.101Z,1.90
2023-01-13T08:20:56.879Z,1.50
2023-01-13T08:23:27.227Z,1.73
2023-01-13T08:25:57.679Z,1.63
2023-01-13T08:28:27.889Z,1.83
2023-01-13T08:31:01.085Z,1.52
2023-01-13T08:33:31.740Z,1.63
2023-01-13T08:36:05.244Z,1.50
2023-01-13T08:38:36.936Z,2.63
2023-01-13T08:41:15.802Z,1.60
2023-01-13T08:43:46.147Z,1.58
2023-01-13T08:46:16.582Z,1.60
2023-01-13T08:48:47.643Z,1.70
2023-01-13T08:51:20.303Z,1.60
2023-01-13T08:53:51.851Z,1.30
2023-01-13T08:56:24.003Z,2.10
2023-01-13T08:58:56.735Z,1.60
2023-01-13T09:01:30.187Z,1.50
2023-01-13T09:04:01.900Z,1.80
2023-01-13T09:06:34.838Z,1.88
2023-01-13T09:09:07.307Z,1.42
2023-01-13T09:12:01.826Z,1.48
2023-01-13T09:14:36.827Z,1.50
2023-01-13T09:17:10.229Z,1.60
2023-01-13T09:19:41.583Z,1.38
2023-01-13T09:22:18.800Z,1.80
2023-01-13T09:24:50.945Z,2.15
2023-01-13T09:27:23.435Z,1.60
2023-01-13T09:29:54.070Z,1.70
2023-01-13T09:32:24.418Z,1.75
2023-01-13T09:35:03.660Z,1.88
2023-01-13T09:37:36.442Z,1.95
2023-01-13T09:40:17.633Z,1.63
2023-01-13T09:43:27.095Z,2.58
2023-01-13T09:46:09.180Z,1.35
2023-01-13T09:48:54.046Z,1.83
2023-01-13T09:51:38.587Z,1.33
2023-01-13T09:54:44.653Z,2.05
2023-01-13T09:57:20.873Z,1.20
2023-01-13T09:59:53.411Z,1.77
2023-01-13T10:02:29.684Z,2.08
2023-01-13T10:05:26.268Z,2.03
2023-01-13T10:08:03.248Z,1.70
2023-01-13T10:10:54.646Z,1.90
2023-01-13T10:13:35.179Z,1.77
2023-01-13T10:16:15.122Z,1.83
2023-01-13T10:19:06.287Z,1.85
2023-01-13T10:22:03.509Z,1.88
2023-01-13T10:24:46.812Z,1.67
2023-01-13T10:27:39.158Z,1.88
2023-01-13T10:30:24.144Z,1.55
2023-01-13T10:33:02.410Z,1.73
2023-01-13T10:36:04.633Z,1.77
2023-01-13T10:38:44.793Z,2.67
2023-01-13T10:41:22.247Z,1.73
2023-01-13T10:44:09.507Z,1.92
2023-01-13T10:46:59.051Z,1.80
2023-01-13T10:49:38.175Z,2.17
2023-01-13T10:52:35.072Z,2.13
2023-01-13T10:55:05.740Z,1.88
2023-01-13T10:57:39.144Z,1.95
2023-01-13T11:00:30.270Z,1.30
2023-01-13T11:03:22.010Z,1.85
2023-01-13T11:06:02.500Z,2.38
2023-01-13T11:08:47.381Z,1.73
2023-01-13T11:11:42.804Z,1.85
2023-01-13T11:14:47.255Z,1.55
2023-01-13T11:17:40.701Z,2.03
2023-01-13T11:20:14.254Z,1.88
2023-01-13T11:23:01.960Z,2.20
2023-01-13T11:25:46.812Z,2.00
2023-01-13T11:28:32.784Z,2.22
2023-01-13T11:31:14.096Z,1.92
2023-01-13T11:33:47.701Z,2.50
2023-01-13T11:36:40.676Z,2.50
2023-01-13T11:39:26.109Z,3.13
2023-01-13T11:42:27.027Z,2.30
2023-01-13T11:45:07.884Z,2.85
2023-01-13T11:47:40.774Z,2.28
2023-01-13T11:50:37.117Z,2.67
2023-01-13T11:53:11.930Z,2.17
2023-01-13T11:55:58.974Z,2.50
2023-01-13T12:01:29.585Z,2.78
2023-01-13T12:04:17.546Z,2.33
2023-01-13T12:06:49.612Z,2.30
2023-01-13T12:09:50.760Z,2.35
2023-01-13T12:13:00.920Z,2.35
2023-01-13T12:15:53.154Z,3.05
2023-01-13T12:18:48.390Z,2.30
2023-01-13T12:21:31.680Z,2.75
2023-01-13T12:24:41.541Z,2.40
2023-01-13T12:27:28.257Z,2.50
2023-01-13T12:30:01.573Z,2.60
2023-01-13T12:32:43.067Z,2.78
2023-01-13T12:35:50.311Z,4.40
2023-01-13T12:38:55.028Z,2.60
2023-01-13T12:41:38.974Z,2.42
2023-01-13T12:44:19.289Z,2.88
2023-01-13T12:46:55.394Z,3.53
2023-01-13T12:49:33.441Z,2.50
2023-01-13T12:52:19.700Z,3.10
2023-01-13T12:54:51.258Z,2.92
2023-01-13T12:57:26.512Z,2.72
2023-01-13T13:00:05.645Z,3.00
2023-01-13T13:02:41.359Z,3.30
2023-01-13T13:05:18.383Z,2.72
2023-01-13T13:07:54.308Z,2.70
2023-01-13T13:10:58.500Z,3.58
2023-01-13T13:13:52.038Z,2.63
2023-01-13T13:16:32.151Z,3.05
2023-01-13T13:19:24.047Z,2.67
2023-01-13T13:22:20.051Z,2.78
2023-01-13T13:24:54.686Z,2.83
2023-01-13T13:27:32.717Z,3.10
2023-01-13T13:30:28.218Z,2.95
2023-01-13T13:33:01.621Z,2.53
2023-01-13T13:36:05.055Z,2.45
2023-01-13T13:39:09.756Z,2.63
2023-01-13T13:42:05.436Z,2.95
2023-01-13T13:45:07.865Z,2.80
2023-01-13T13:47:42.816Z,2.70
2023-01-13T13:50:23.747Z,2.00
2023-01-13T13:53:03.376Z,2.53
2023-01-13T13:55:35.010Z,2.40
2023-01-13T13:58:06.023Z,3.40
2023-01-13T14:00:41.582Z,3.15
2023-01-13T14:03:28.752Z,2.88
2023-01-13T14:06:07.498Z,3.53
2023-01-13T14:08:40.288Z,2.65
2023-01-13T14:11:37.759Z,2.78
2023-01-13T14:14:19.330Z,2.72
2023-01-13T14:16:50.602Z,3.55
2023-01-13T14:19:37.487Z,2.33
2023-01-13T14:24:51.425Z,2.83
2023-01-13T14:27:22.122Z,2.65
2023-01-13T14:29:55.591Z,2.58
2023-01-13T14:32:30.809Z,3.15
2023-01-13T14:35:01.484Z,2.42
2023-01-13T14:37:33.349Z,2.88
2023-01-13T14:40:04.487Z,2.22
2023-01-13T14:42:37.615Z,2.30
2023-01-13T14:45:27.805Z,1.90
2023-01-13T14:48:00.549Z,1.92
2023-01-13T14:50:35.986Z,2.15
2023-01-13T14:53:06.781Z,2.30
2023-01-13T14:55:43.573Z,2.20
2023-01-13T14:58:39.964Z,2.42
2023-01-13T15:01:32.336Z,2.53
2023-01-13T15:04:27.535Z,2.83
2023-01-13T15:07:00.267Z,2.58
2023-01-13T15:09:36.703Z,3.03
2023-01-13T15:14:55.712Z,2.95
2023-01-13T15:17:26.974Z,2.13
2023-01-13T15:19:57.663Z,2.10
2023-01-13T15:22:29.607Z,2.03
2023-01-13T15:25:00.734Z,2.28
2023-01-13T15:27:31.487Z,2.70
2023-01-13T15:30:02.392Z,2.20
2023-01-13T15:32:33.361Z,2.72
2023-01-13T15:35:04.989Z,2.50
2023-01-13T15:37:35.980Z,2.45
2023-01-13T15:40:07.074Z,2.08
2023-01-13T15:42:57.565Z,1.88
2023-01-13T15:45:46.913Z,2.75
2023-01-13T15:48:18.063Z,2.20
2023-01-13T15:50:48.789Z,1.60
2023-01-13T15:53:19.878Z,2.10
2023-01-13T15:55:54.381Z,1.80
2023-01-13T15:58:28.482Z,2.35
2023-01-13T16:00:58.896Z,2.35
2023-01-13T16:03:29.456Z,1.80
2023-01-13T16:06:00.067Z,2.30
2023-01-13T16:08:36.072Z,2.20
2023-01-13T16:11:07.017Z,2.00
2023-01-13T16:13:37.489Z,2.83
2023-01-13T16:16:21.616Z,3.38
2023-01-13T16:18:53.627Z,1.92
2023-01-13T16:21:26.087Z,2.47
2023-01-13T16:23:58.000Z,2.08
2023-01-13T16:26:34.955Z,2.00
2023-01-13T16:29:06.421Z,1.83
2023-01-13T16:31:37.580Z,1.73
2023-01-13T16:34:08.500Z,2.55
2023-01-13T16:36:39.678Z,2.38
2023-01-13T16:39:23.764Z,3.03
2023-01-13T16:41:54.077Z,2.67
2023-01-13T16:44:25.043Z,2.22
2023-01-13T16:46:55.299Z,2.10
2023-01-13T16:49:25.569Z,2.15
2023-01-13T16:51:55.811Z,2.30
2023-01-13T16:54:26.188Z,2.50
2023-01-13T16:56:56.471Z,2.58
2023-01-13T16:59:26.848Z,2.35
2023-01-13T17:01:58.421Z,2.15
2023-01-13T17:04:28.944Z,2.38
2023-01-13T17:07:02.536Z,2.25
2023-01-13T17:09:33.427Z,2.42
2023-01-13T17:12:04.029Z,2.20
2023-01-13T17:14:34.371Z,2.78
2023-01-13T17:17:04.889Z,2.45
2023-01-13T17:19:35.414Z,2.58
2023-01-13T17:22:05.673Z,2.97
2023-01-13T17:24:36.951Z,2.20
2023-01-13T17:27:07.249Z,2.58
2023-01-13T17:29:37.815Z,3.10
2023-01-13T17:32:08.233Z,2.63
2023-01-13T17:34:38.742Z,2.60
2023-01-13T17:37:09.727Z,3.05
2023-01-13T17:39:40.048Z,3.15
2023-01-13T17:42:10.457Z,3.00
2023-01-13T17:44:41.750Z,2.78
2023-01-13T17:47:13.521Z,2.70
2023-01-13T17:49:44.640Z,2.97
2023-01-13T17:52:17.532Z,2.85
2023-01-13T17:54:49.741Z,2.58
2023-01-13T17:57:20.641Z,2.97
2023-01-13T17:59:51.838Z,2.50
2023-01-13T18:02:22.645Z,3.03
2023-01-13T18:04:53.639Z,2.60
2023-01-13T18:07:24.507Z,2.60
2023-01-13T18:09:56.111Z,2.33
2023-01-13T18:12:27.998Z,2.20
2023-01-13T18:14:59.933Z,2.40
2023-01-13T18:17:30.263Z,2.47
2023-01-13T18:20:18.379Z,2.20
2023-01-13T18:23:06.536Z,2.17
2023-01-13T18:25:54.601Z,2.47
2023-01-13T18:28:24.885Z,2.35
2023-01-13T18:30:55.170Z,2.15
2023-01-13T18:33:25.830Z,2.50
2023-01-13T18:35:56.438Z,2.60
2023-01-13T18:38:29.822Z,2.05
2023-01-13T18:41:00.515Z,1.80
2023-01-13T18:43:30.829Z,2.67
2023-01-13T18:46:01.102Z,1.83
2023-01-13T18:48:33.137Z,2.03
2023-01-13T18:51:03.504Z,1.85
2023-01-13T18:53:34.304Z,2.03
2023-01-13T18:56:07.846Z,1.67
2023-01-13T18:58:38.174Z,1.90
2023-01-13T19:01:09.251Z,1.45
2023-01-13T19:03:39.536Z,2.00
2023-01-13T19:06:16.033Z,1.48
2023-01-13T19:08:46.454Z,1.77
2023-01-13T19:11:17.100Z,1.50
2023-01-13T19:13:47.694Z,1.77
2023-01-13T19:16:20.268Z,1.77
2023-01-13T19:18:51.630Z,1.63
2023-01-13T19:21:21.881Z,1.20
2023-01-13T19:23:54.967Z,1.50
2023-01-13T19:26:25.304Z,1.50
2023-01-13T19:28:55.627Z,1.45
2023-01-13T19:31:25.937Z,1.23
2023-01-13T19:33:56.249Z,1.40
2023-01-13T19:36:26.547Z,1.35
2023-01-13T19:38:57.287Z,1.70
2023-01-13T19:41:45.842Z,1.30
2023-01-13T19:44:33.846Z,1.50
2023-01-13T19:47:05.988Z,1.63
2023-01-13T19:49:37.155Z,1.30
2023-01-13T19:52:07.635Z,1.10
2023-01-13T19:54:39.271Z,1.15
2023-01-13T19:57:10.428Z,1.30
2023-01-13T19:59:44.230Z,1.13
2023-01-13T20:02:29.934Z,2.20
2023-01-13T20:05:07.346Z,1.10
2023-01-13T20:07:37.753Z,1.00
2023-01-13T20:10:08.567Z,1.80
2023-01-13T20:12:38.807Z,1.83
2023-01-13T20:15:10.030Z,1.10
2023-01-13T20:17:40.775Z,1.30
2023-01-13T20:20:12.493Z,1.38
2023-01-13T20:22:45.493Z,1.38
2023-01-13T20:25:18.866Z,1.35
2023-01-13T20:27:50.391Z,1.27
2023-01-13T20:30:20.663Z,1.30
2023-01-13T20:32:50.943Z,1.20
2023-01-13T20:35:21.354Z,1.60
2023-01-13T20:37:51.542Z,1.20
2023-01-13T20:40:21.838Z,2.58
2023-01-13T20:42:53.518Z,1.52
2023-01-13T20:45:25.017Z,1.77
2023-01-13T20:47:56.728Z,1.33
2023-01-13T20:50:27.226Z,1.40
2023-01-13T20:52:57.833Z,1.17
2023-01-13T20:55:28.018Z,1.13
2023-01-13T20:57:58.224Z,1.20
2023-01-13T21:00:30.606Z,1.88
2023-01-13T21:03:01.749Z,2.08
2023-01-13T21:05:32.036Z,0.98
2023-01-13T21:08:02.791Z,1.67
2023-01-13T21:10:33.660Z,1.20
2023-01-13T21:13:22.296Z,1.35
2023-01-13T21:15:53.217Z,1.15
2023-01-13T21:18:44.346Z,1.10
2023-01-13T21:21:15.273Z,1.23
2023-01-13T21:23:49.259Z,1.10
2023-01-13T21:26:21.609Z,1.15
2023-01-13T21:28:54.134Z,1.20
2023-01-13T21:31:27.043Z,1.08
2023-01-13T21:34:01.414Z,1.55
2023-01-13T21:36:31.621Z,1.45
2023-01-13T21:39:03.104Z,0.98
2023-01-13T21:41:51.511Z,0.93
2023-01-13T21:44:42.791Z,0.90
2023-01-13T21:47:37.153Z,1.35
2023-01-13T21:50:13.205Z,1.48
2023-01-13T21:52:44.962Z,1.10
2023-01-13T21:55:22.506Z,1.30
2023-01-13T21:57:55.486Z,0.90
2023-01-13T22:00:29.327Z,1.17
2023-01-13T22:03:02.879Z,0.90
2023-01-13T22:05:33.734Z,1.02
2023-01-13T22:08:05.257Z,0.90
2023-01-13T22:10:36.726Z,1.20
2023-01-13T22:13:25.467Z,0.60
2023-01-13T22:15:56.746Z,0.95
2023-01-13T22:18:27.364Z,0.60
2023-01-13T22:20:58.077Z,0.73
2023-01-13T22:23:28.680Z,0.60
2023-01-13T22:26:07.141Z,0.57
2023-01-13T22:28:46.135Z,0.90
2023-01-13T22:31:19.418Z,1.00
2023-01-13T22:33:50.477Z,0.80
2023-01-13T22:36:21.534Z,1.15
2023-01-13T22:38:55.924Z,0.55
2023-01-13T22:41:26.393Z,0.60
2023-01-13T22:43:56.649Z,0.80
2023-01-13T22:46:27.241Z,0.60
2023-01-13T22:48:57.694Z,0.75
2023-01-13T22:51:29.522Z,1.00
2023-01-13T22:53:59.981Z,0.65
2023-01-13T22:56:30.582Z,0.60
2023-01-13T22:59:03.421Z,0.68
2023-01-13T23:01:36.464Z,0.85
2023-01-13T23:04:07.419Z,0.77
2023-01-13T23:06:38.468Z,0.65
2023-01-13T23:09:09.344Z,0.95
2023-01-13T23:11:39.950Z,0.90
2023-01-13T23:14:13.369Z,1.63
2023-01-13T23:16:44.653Z,0.73
2023-01-13T23:19:15.088Z,0.75
2023-01-13T23:21:45.566Z,1.05
2023-01-13T23:24:15.895Z,0.77
2023-01-13T23:26:46.286Z,1.05
2023-01-13T23:29:16.737Z,1.00
2023-01-13T23:31:47.130Z,0.77
2023-01-13T23:34:17.953Z,0.90
2023-01-13T23:36:48.273Z,1.17
2023-01-13T23:39:18.484Z,1.60
2023-01-13T23:41:49.462Z,1.02
2023-01-13T23:44:19.693Z,0.90
2023-01-13T23:46:50.352Z,1.00
2023-01-13T23:49:20.774Z,1.20
2023-01-13T23:51:53.751Z,1.10
2023-01-13T23:54:23.983Z,1.00
2023-01-13T23:56:55.381Z,1.30
2023-01-13T23:59:26.555Z,1.10
